createdAt,value
2018-03-31T00:01:38.552Z,99644.72
2018-03-31T00:04:05.146Z,99651.37
2018-03-31T00:06:32.597Z,99655.05
2018-03-31T00:08:59.163Z,99649.11
2018-03-31T00:11:25.789Z,99647.12
2018-03-31T00:13:53.092Z,99657.01
2018-03-31T00:16:19.688Z,99655.05
2018-03-31T00:18:47.064Z,99656.21
2018-03-31T00:21:13.647Z,99657.86
2018-03-31T00:23:40.226Z,99654.54
2018-03-31T00:26:06.856Z,99657.56
2018-03-31T00:28:34.197Z,99654.02
2018-03-31T00:31:01.522Z,99655.40
2018-03-31T00:33:28.101Z,99661.83
2018-03-31T00:35:55.384Z,99666.13
2018-03-31T00:38:21.929Z,99658.98
2018-03-31T00:40:48.496Z,99664.92
2018-03-31T00:43:15.188Z,99659.25
2018-03-31T00:45:41.741Z,99667.14
2018-03-31T00:48:08.379Z,99660.67
2018-03-31T00:50:35.014Z,99656.95
2018-03-31T00:53:01.583Z,99656.87
2018-03-31T00:55:28.212Z,99647.69
2018-03-31T00:57:54.757Z,99649.06
2018-03-31T01:00:21.463Z,99650.35
2018-03-31T01:02:48.037Z,99656.95
2018-03-31T01:05:14.661Z,99653.41
2018-03-31T01:07:41.302Z,99657.27
2018-03-31T01:10:07.859Z,99658.41
2018-03-31T01:12:35.166Z,99661.14
2018-03-31T01:15:01.743Z,99658.02
2018-03-31T01:17:29.261Z,99663.70
2018-03-31T01:19:55.828Z,99663.92
2018-03-31T01:22:22.484Z,99663.50
2018-03-31T01:24:49.025Z,99663.84
2018-03-31T01:27:16.368Z,99659.08
2018-03-31T01:29:43.083Z,99659.95
2018-03-31T01:32:09.868Z,99654.94
2018-03-31T01:34:37.208Z,99655.14
2018-03-31T01:37:04.032Z,99655.84
2018-03-31T01:39:30.638Z,99652.80
2018-03-31T01:41:57.252Z,99655.55
2018-03-31T01:44:23.816Z,99654.12
2018-03-31T01:46:50.372Z,99654.09
2018-03-31T01:49:16.946Z,99653.81
2018-03-31T01:51:44.283Z,99661.20
2018-03-31T01:54:10.861Z,99662.03
2018-03-31T01:56:37.424Z,99661.00
2018-03-31T01:59:04.105Z,99664.40
2018-03-31T02:01:30.659Z,99665.50
2018-03-31T02:03:57.980Z,99663.98
2018-03-31T02:06:24.813Z,99660.79
2018-03-31T02:08:51.375Z,99666.44
2018-03-31T02:11:18.058Z,99656.82
2018-03-31T02:13:44.745Z,99653.61
2018-03-31T02:16:11.293Z,99654.42
2018-03-31T02:18:38.607Z,99654.42
2018-03-31T02:21:05.425Z,99659.97
2018-03-31T02:23:32.063Z,99656.19
2018-03-31T02:25:58.620Z,99664.81
2018-03-31T02:28:25.306Z,99656.92
2018-03-31T02:30:52.929Z,99653.80
2018-03-31T02:33:19.517Z,99651.81
2018-03-31T02:35:46.254Z,99645.64
2018-03-31T02:38:13.764Z,99649.36
2018-03-31T02:40:40.356Z,99650.69
2018-03-31T02:43:06.911Z,99654.01
2018-03-31T02:45:33.702Z,99651.63
2018-03-31T02:48:00.452Z,99645.75
2018-03-31T02:50:27.114Z,99655.56
2018-03-31T02:52:53.733Z,99657.69
2018-03-31T02:55:21.107Z,99653.11
2018-03-31T02:57:47.929Z,99643.86
2018-03-31T03:00:15.259Z,99643.49
2018-03-31T03:02:41.832Z,99640.18
2018-03-31T03:05:09.326Z,99636.27
2018-03-31T03:07:35.908Z,99642.99
2018-03-31T03:10:02.571Z,99643.19
2018-03-31T03:12:29.242Z,99649.81
2018-03-31T03:14:56.127Z,99650.73
2018-03-31T03:17:22.709Z,99651.57
2018-03-31T03:19:49.357Z,99658.06
2018-03-31T03:22:15.933Z,99663.52
2018-03-31T03:24:42.613Z,99656.80
2018-03-31T03:27:09.905Z,99664.82
2018-03-31T03:29:36.476Z,99664.13
2018-03-31T03:32:03.227Z,99666.58
2018-03-31T03:34:30.604Z,99672.03
2018-03-31T03:36:57.149Z,99672.74
2018-03-31T03:39:23.762Z,99675.50
2018-03-31T03:41:51.108Z,99673.75
2018-03-31T03:44:18.500Z,99678.41
2018-03-31T03:46:45.100Z,99677.32
2018-03-31T03:49:12.489Z,99681.86
2018-03-31T03:51:39.076Z,99684.52
2018-03-31T03:54:05.664Z,99688.05
2018-03-31T03:56:32.247Z,99690.52
2018-03-31T03:58:58.819Z,99695.20
2018-03-31T04:01:26.494Z,99699.79
2018-03-31T04:03:53.044Z,99711.95
2018-03-31T04:06:19.695Z,99699.69
2018-03-31T04:08:46.374Z,99708.64
2018-03-31T04:11:12.949Z,99719.29
2018-03-31T04:13:39.545Z,99717.46
2018-03-31T04:16:06.128Z,99708.67
2018-03-31T04:18:32.719Z,99705.72
2018-03-31T04:20:59.304Z,99709.98
2018-03-31T04:23:25.980Z,99714.31
2018-03-31T04:25:52.536Z,99710.99
2018-03-31T04:28:19.845Z,99704.63
2018-03-31T04:30:46.446Z,99715.95
2018-03-31T04:33:13.755Z,99720.48
2018-03-31T04:35:40.306Z,99715.81
2018-03-31T04:38:06.875Z,99714.70
2018-03-31T04:40:33.435Z,99723.69
2018-03-31T04:43:00.024Z,99717.30
2018-03-31T04:45:26.692Z,99716.61
2018-03-31T04:47:53.266Z,99721.83
2018-03-31T04:50:19.847Z,99715.95
2018-03-31T04:52:47.246Z,99715.64
2018-03-31T04:55:13.826Z,99710.47
2018-03-31T04:57:40.554Z,99711.81
2018-03-31T05:00:07.318Z,99717.94
2018-03-31T05:02:34.712Z,99709.63
2018-03-31T05:05:01.451Z,99716.30
2018-03-31T05:07:28.058Z,99721.28
2018-03-31T05:09:55.405Z,99721.41
2018-03-31T05:12:22.040Z,99713.38
2018-03-31T05:14:49.358Z,99718.63
2018-03-31T05:17:16.780Z,99709.51
2018-03-31T05:19:43.366Z,99710.92
2018-03-31T05:22:09.929Z,99713.66
2018-03-31T05:27:38.635Z,99713.10
2018-03-31T05:30:05.943Z,99718.08
2018-03-31T05:32:32.682Z,99713.81
2018-03-31T05:34:59.214Z,99713.90
2018-03-31T05:37:26.170Z,99712.31
2018-03-31T05:39:53.673Z,99711.86
2018-03-31T05:42:20.945Z,99715.04
2018-03-31T05:44:47.676Z,99718.33
2018-03-31T05:47:15.368Z,99721.50
2018-03-31T05:49:42.010Z,99719.99
2018-03-31T05:52:08.551Z,99719.41
2018-03-31T05:54:35.122Z,99720.55
2018-03-31T05:57:01.725Z,99713.22
2018-03-31T05:59:28.299Z,99715.16
2018-03-31T06:01:54.900Z,99716.80
2018-03-31T06:04:22.346Z,99712.48
2018-03-31T06:06:48.910Z,99709.33
2018-03-31T06:09:15.693Z,99713.02
2018-03-31T06:11:43.002Z,99714.95
2018-03-31T06:14:09.588Z,99706.49
2018-03-31T06:16:36.912Z,99705.41
2018-03-31T06:19:03.487Z,99714.05
2018-03-31T06:21:30.044Z,99715.58
2018-03-31T06:23:56.777Z,99714.76
2018-03-31T06:26:23.323Z,99722.15
2018-03-31T06:28:50.694Z,99725.12
2018-03-31T06:31:17.468Z,99720.72
2018-03-31T06:33:43.996Z,99720.95
2018-03-31T06:36:10.589Z,99718.09
2018-03-31T06:38:37.135Z,99719.12
2018-03-31T06:41:03.692Z,99726.23
2018-03-31T06:43:30.654Z,99732.14
2018-03-31T06:45:57.241Z,99735.52
2018-03-31T06:48:23.781Z,99726.36
2018-03-31T06:50:50.623Z,99730.25
2018-03-31T06:53:17.384Z,99726.98
2018-03-31T06:55:44.001Z,99730.19
2018-03-31T06:58:10.651Z,99734.66
2018-03-31T07:00:37.286Z,99729.10
2018-03-31T07:03:04.589Z,99740.95
2018-03-31T07:05:31.379Z,99736.34
2018-03-31T07:07:58.054Z,99740.45
2018-03-31T07:10:24.671Z,99748.30
2018-03-31T07:12:51.212Z,99749.30
2018-03-31T07:15:17.897Z,99753.22
2018-03-31T07:17:45.362Z,99756.05
2018-03-31T07:20:12.712Z,99754.01
2018-03-31T07:22:40.067Z,99760.94
2018-03-31T07:25:07.468Z,99762.63
2018-03-31T07:27:34.134Z,99770.33
2018-03-31T07:30:00.670Z,99770.05
2018-03-31T07:32:27.415Z,99767.23
2018-03-31T07:34:54.004Z,99768.91
2018-03-31T07:37:20.618Z,99770.54
2018-03-31T07:39:47.948Z,99768.50
2018-03-31T07:42:14.724Z,99775.32
2018-03-31T07:44:41.544Z,99778.38
2018-03-31T07:47:08.925Z,99781.09
2018-03-31T07:49:35.621Z,99776.38
2018-03-31T07:52:02.204Z,99775.22
2018-03-31T07:54:28.881Z,99777.09
2018-03-31T07:56:55.472Z,99770.88
2018-03-31T07:59:22.090Z,99772.34
2018-03-31T08:01:49.391Z,99772.39
2018-03-31T08:04:16.062Z,99778.51
2018-03-31T08:06:43.618Z,99773.72
2018-03-31T08:09:10.157Z,99775.13
2018-03-31T08:11:36.695Z,99773.69
2018-03-31T08:14:03.267Z,99772.98
2018-03-31T08:16:30.565Z,99768.33
2018-03-31T08:18:57.141Z,99769.91
2018-03-31T08:21:24.507Z,99769.64
2018-03-31T08:23:51.820Z,99772.95
2018-03-31T08:26:18.413Z,99775.43
2018-03-31T08:28:44.948Z,99774.48
2018-03-31T08:31:11.557Z,99774.24
2018-03-31T08:33:38.837Z,99771.52
2018-03-31T08:36:05.377Z,99762.12
2018-03-31T08:38:31.942Z,99769.62
2018-03-31T08:40:58.638Z,99765.23
2018-03-31T08:43:26.060Z,99764.77
2018-03-31T08:45:52.650Z,99764.66
2018-03-31T08:48:19.180Z,99769.14
2018-03-31T08:50:45.868Z,99768.28
2018-03-31T08:53:12.442Z,99769.66
2018-03-31T08:55:39.708Z,99763.95
2018-03-31T08:58:06.254Z,99764.63
2018-03-31T09:00:32.949Z,99761.33
2018-03-31T09:02:59.505Z,99763.80
2018-03-31T09:05:26.878Z,99761.66
2018-03-31T09:07:53.743Z,99768.02
2018-03-31T09:10:20.451Z,99768.92
2018-03-31T09:12:47.350Z,99764.63
2018-03-31T09:15:13.936Z,99769.11
2018-03-31T09:17:40.534Z,99767.55
2018-03-31T09:20:07.116Z,99765.09
2018-03-31T09:22:33.720Z,99766.13
2018-03-31T09:25:00.400Z,99754.97
2018-03-31T09:27:26.990Z,99762.23
2018-03-31T09:29:53.632Z,99761.95
2018-03-31T09:32:20.200Z,99762.72
2018-03-31T09:34:46.853Z,99760.80
2018-03-31T09:37:13.431Z,99761.92
2018-03-31T09:39:40.025Z,99764.78
2018-03-31T09:42:06.613Z,99763.27
2018-03-31T09:44:33.262Z,99761.74
2018-03-31T09:46:59.972Z,99765.55
2018-03-31T09:49:26.539Z,99767.54
2018-03-31T09:51:54.077Z,99767.16
2018-03-31T09:54:20.725Z,99766.23
2018-03-31T09:56:47.309Z,99766.16
2018-03-31T09:59:14.131Z,99770.11
2018-03-31T10:01:41.478Z,99766.41
2018-03-31T10:04:08.804Z,99761.40
2018-03-31T10:06:35.384Z,99765.69
2018-03-31T10:09:02.920Z,99761.81
2018-03-31T10:11:30.209Z,99761.81
2018-03-31T10:13:56.790Z,99762.31
2018-03-31T10:16:23.392Z,99764.30
2018-03-31T10:18:49.968Z,99765.40
2018-03-31T10:21:16.539Z,99765.16
2018-03-31T10:23:43.914Z,99770.41
2018-03-31T10:26:10.494Z,99767.88
2018-03-31T10:28:37.265Z,99767.08
2018-03-31T10:31:04.644Z,99768.89
2018-03-31T10:33:31.227Z,99776.22
2018-03-31T10:35:57.830Z,99776.45
2018-03-31T10:38:24.399Z,99771.81
2018-03-31T10:40:51.170Z,99769.91
2018-03-31T10:43:18.790Z,99770.20
2018-03-31T10:45:45.439Z,99768.73
2018-03-31T10:48:12.096Z,99765.63
2018-03-31T10:50:38.864Z,99772.39
2018-03-31T10:53:06.220Z,99770.99
2018-03-31T10:55:32.858Z,99767.12
2018-03-31T10:58:00.153Z,99771.27
2018-03-31T11:00:26.765Z,99769.38
2018-03-31T11:02:53.429Z,99771.20
2018-03-31T11:05:20.006Z,99770.53
2018-03-31T11:07:46.598Z,99772.33
2018-03-31T11:10:13.178Z,99785.58
2018-03-31T11:12:39.758Z,99778.51
2018-03-31T11:15:06.392Z,99772.66
2018-03-31T11:17:33.004Z,99772.13
2018-03-31T11:20:00.363Z,99775.69
2018-03-31T11:22:27.698Z,99775.42
2018-03-31T11:24:54.309Z,99778.36
2018-03-31T11:27:21.008Z,99771.94
2018-03-31T11:29:47.582Z,99766.86
2018-03-31T11:32:14.329Z,99771.95
2018-03-31T11:34:40.878Z,99769.61
2018-03-31T11:37:07.453Z,99770.88
2018-03-31T11:39:34.057Z,99774.41
2018-03-31T11:42:00.623Z,99766.73
2018-03-31T11:44:27.937Z,99771.96
2018-03-31T11:46:54.695Z,99771.02
2018-03-31T11:49:22.015Z,99774.45
2018-03-31T11:51:48.595Z,99773.70
2018-03-31T11:54:16.055Z,99773.00
2018-03-31T11:56:43.389Z,99770.34
2018-03-31T11:59:10.006Z,99771.11
2018-03-31T12:01:36.588Z,99773.54
2018-03-31T12:04:03.192Z,99770.30
2018-03-31T12:06:29.777Z,99764.06
2018-03-31T12:08:56.361Z,99771.89
2018-03-31T12:11:22.948Z,99769.98
2018-03-31T12:13:49.590Z,99767.45
2018-03-31T12:16:16.164Z,99760.25
2018-03-31T12:18:42.723Z,99763.91
2018-03-31T12:21:09.309Z,99765.30
2018-03-31T12:23:35.860Z,99766.02
2018-03-31T12:26:02.455Z,99757.86
2018-03-31T12:28:29.743Z,99763.09
2018-03-31T12:30:56.321Z,99757.47
2018-03-31T12:33:22.948Z,99759.94
2018-03-31T12:35:49.572Z,99757.88
2018-03-31T12:38:16.176Z,99759.25
2018-03-31T12:40:42.760Z,99759.30
2018-03-31T12:43:09.321Z,99756.30
2018-03-31T12:45:35.949Z,99754.86
2018-03-31T12:48:02.909Z,99763.33
2018-03-31T12:50:29.547Z,99763.22
2018-03-31T12:52:56.188Z,99758.25
2018-03-31T12:55:23.737Z,99759.02
2018-03-31T12:57:50.362Z,99758.81
2018-03-31T13:00:16.917Z,99756.94
2018-03-31T13:02:44.296Z,99754.77
2018-03-31T13:05:10.871Z,99749.94
2018-03-31T13:07:38.416Z,99749.40
2018-03-31T13:10:05.077Z,99753.28
2018-03-31T13:12:31.911Z,99751.34
2018-03-31T13:14:58.620Z,99752.84
2018-03-31T13:17:25.162Z,99751.55
2018-03-31T13:19:51.816Z,99749.26
2018-03-31T13:22:18.605Z,99749.50
2018-03-31T13:24:45.299Z,99756.00
2018-03-31T13:27:12.141Z,99749.20
2018-03-31T13:29:38.747Z,99750.51
2018-03-31T13:32:06.050Z,99746.52
2018-03-31T13:34:32.689Z,99742.23
2018-03-31T13:36:59.244Z,99738.91
2018-03-31T13:39:25.950Z,99738.41
2018-03-31T13:41:52.592Z,99738.96
2018-03-31T13:44:20.317Z,99740.78
2018-03-31T13:46:46.973Z,99735.08
2018-03-31T13:49:13.585Z,99739.70
2018-03-31T13:51:40.910Z,99735.92
2018-03-31T13:54:07.551Z,99737.00
2018-03-31T13:56:34.276Z,99731.45
2018-03-31T13:59:00.864Z,99729.53
2018-03-31T14:01:28.461Z,99730.05
2018-03-31T14:03:55.915Z,99730.70
2018-03-31T14:06:22.945Z,99731.73
2018-03-31T14:08:49.683Z,99730.94
2018-03-31T14:11:16.241Z,99728.80
2018-03-31T14:13:42.912Z,99732.76
2018-03-31T14:16:09.537Z,99733.97
2018-03-31T14:18:36.165Z,99732.60
2018-03-31T14:21:02.762Z,99726.05
2018-03-31T14:23:29.568Z,99724.81
2018-03-31T14:25:56.259Z,99728.26
2018-03-31T14:28:22.847Z,99732.58
2018-03-31T14:30:49.462Z,99731.73
2018-03-31T14:33:16.077Z,99734.30
2018-03-31T14:35:42.728Z,99728.05
2018-03-31T14:38:09.418Z,99730.34
2018-03-31T14:40:37.085Z,99734.62
2018-03-31T14:43:04.397Z,99738.54
2018-03-31T14:45:31.027Z,99736.58
2018-03-31T14:47:57.665Z,99741.23
2018-03-31T14:50:24.213Z,99736.16
2018-03-31T14:52:50.908Z,99736.72
2018-03-31T14:55:17.565Z,99734.62
2018-03-31T14:57:44.155Z,99732.39
2018-03-31T15:00:10.792Z,99732.50
2018-03-31T15:02:38.252Z,99733.26
2018-03-31T15:05:05.590Z,99736.80
2018-03-31T15:07:32.195Z,99733.39
2018-03-31T15:09:58.818Z,99729.00
2018-03-31T15:12:25.499Z,99732.94
2018-03-31T15:14:52.069Z,99733.48
2018-03-31T15:17:19.376Z,99736.38
2018-03-31T15:19:46.001Z,99737.14
2018-03-31T15:22:12.851Z,99733.69
2018-03-31T15:24:39.460Z,99737.39
2018-03-31T15:27:06.082Z,99734.37
2018-03-31T15:29:33.415Z,99739.73
2018-03-31T15:32:00.038Z,99728.03
2018-03-31T15:34:26.889Z,99729.70
2018-03-31T15:36:53.573Z,99729.44
2018-03-31T15:39:20.155Z,99729.44
2018-03-31T15:41:46.968Z,99733.16
2018-03-31T15:44:13.679Z,99731.63
2018-03-31T15:46:41.263Z,99734.41
2018-03-31T15:49:07.845Z,99730.60
2018-03-31T15:51:34.505Z,99734.07
2018-03-31T15:54:01.841Z,99730.23
2018-03-31T15:56:28.456Z,99727.40
2018-03-31T15:58:55.016Z,99731.75
2018-03-31T16:01:21.614Z,99733.16
2018-03-31T16:03:48.361Z,99727.77
2018-03-31T16:06:15.086Z,99725.30
2018-03-31T16:08:41.692Z,99734.77
2018-03-31T16:11:09.032Z,99730.75
2018-03-31T16:13:35.633Z,99734.31
2018-03-31T16:16:02.236Z,99727.28
2018-03-31T16:18:29.074Z,99729.44
2018-03-31T16:20:56.577Z,99731.20
2018-03-31T16:23:23.374Z,99732.05
2018-03-31T16:25:50.691Z,99725.81
2018-03-31T16:28:17.542Z,99728.34
2018-03-31T16:30:44.140Z,99729.63
2018-03-31T16:33:10.817Z,99724.78
2018-03-31T16:35:37.659Z,99727.25
2018-03-31T16:38:04.315Z,99734.50
2018-03-31T16:40:31.673Z,99741.45
2018-03-31T16:42:59.041Z,99739.14
2018-03-31T16:45:28.402Z,99736.56
2018-03-31T16:47:54.988Z,99739.56
2018-03-31T16:50:21.712Z,99748.12
2018-03-31T16:52:49.061Z,99737.62
2018-03-31T16:55:16.420Z,99744.56
2018-03-31T16:57:43.826Z,99741.56
2018-03-31T17:00:10.418Z,99743.35
2018-03-31T17:02:37.959Z,99743.30
2018-03-31T17:05:04.627Z,99741.87
2018-03-31T17:07:32.171Z,99748.84
2018-03-31T17:10:00.525Z,99741.08
2018-03-31T17:12:27.104Z,99745.56
2018-03-31T17:14:53.696Z,99747.17
2018-03-31T17:17:20.309Z,99746.84
2018-03-31T17:19:46.905Z,99747.22
2018-03-31T17:22:14.251Z,99751.67
2018-03-31T17:24:41.626Z,99751.73
2018-03-31T17:27:09.025Z,99756.27
2018-03-31T17:29:35.604Z,99758.47
2018-03-31T17:32:03.047Z,99760.64
2018-03-31T17:34:29.628Z,99768.81
2018-03-31T17:36:56.470Z,99772.20
2018-03-31T17:39:23.998Z,99779.43
2018-03-31T17:41:50.581Z,99776.89
2018-03-31T17:44:17.251Z,99781.17
2018-03-31T17:46:44.223Z,99787.23
2018-03-31T17:49:11.566Z,99784.30
2018-03-31T17:51:38.276Z,99791.16
2018-03-31T17:54:04.982Z,99789.60
2018-03-31T17:56:31.606Z,99788.34
2018-03-31T17:58:59.270Z,99791.64
2018-03-31T18:01:26.145Z,99792.46
2018-03-31T18:03:52.726Z,99796.72
2018-03-31T18:06:19.373Z,99793.50
2018-03-31T18:08:46.719Z,99799.09
2018-03-31T18:11:13.294Z,99801.81
2018-03-31T18:13:39.968Z,99800.19
2018-03-31T18:16:06.566Z,99808.64
2018-03-31T18:18:33.485Z,99818.12
2018-03-31T18:21:00.453Z,99809.36
2018-03-31T18:23:27.369Z,99808.56
2018-03-31T18:25:54.164Z,99813.19
2018-03-31T18:28:21.575Z,99814.19
2018-03-31T18:30:48.951Z,99817.42
2018-03-31T18:33:15.548Z,99822.05
2018-03-31T18:35:42.383Z,99816.83
2018-03-31T18:38:09.380Z,99825.54
2018-03-31T18:40:35.994Z,99823.73
2018-03-31T18:43:03.391Z,99830.73
2018-03-31T18:45:30.573Z,99839.73
2018-03-31T18:47:57.166Z,99853.55
2018-03-31T18:50:23.815Z,99861.88
2018-03-31T18:52:50.492Z,99863.47
2018-03-31T18:55:17.410Z,99869.53
2018-03-31T18:57:44.010Z,99871.02
2018-03-31T19:00:11.319Z,99874.61
2018-03-31T19:02:38.343Z,99888.03
2018-03-31T19:05:04.923Z,99887.07
2018-03-31T19:07:32.288Z,99892.33
2018-03-31T19:09:59.654Z,99897.55
2018-03-31T19:12:27.038Z,99901.37
2018-03-31T19:14:53.608Z,99901.52
2018-03-31T19:17:20.253Z,99903.05
2018-03-31T19:19:46.872Z,99905.80
2018-03-31T19:22:13.478Z,99912.47
2018-03-31T19:24:44.652Z,99914.02
2018-03-31T19:27:11.232Z,99921.83
2018-03-31T19:29:37.994Z,99930.58
2018-03-31T19:32:04.835Z,99933.47
2018-03-31T19:34:32.462Z,99938.44
2018-03-31T19:36:59.018Z,99945.76
2018-03-31T19:39:30.902Z,99956.79
2018-03-31T19:41:58.213Z,99961.56
2018-03-31T19:44:25.015Z,99963.81
2018-03-31T19:46:51.639Z,99968.95
2018-03-31T19:49:18.253Z,99969.97
2018-03-31T19:51:44.913Z,99980.02
2018-03-31T19:54:11.518Z,99981.41
2018-03-31T19:56:38.853Z,99985.59
2018-03-31T19:59:05.795Z,99991.84
2018-03-31T20:01:32.701Z,99989.61
2018-03-31T20:03:59.342Z,99997.36
2018-03-31T20:06:26.162Z,99995.17
2018-03-31T20:08:53.585Z,100000.29
2018-03-31T20:11:20.208Z,99997.86
2018-03-31T20:13:46.790Z,99994.77
2018-03-31T20:16:14.516Z,100000.13
2018-03-31T20:18:41.193Z,99995.96
2018-03-31T20:21:08.545Z,100001.28
2018-03-31T20:23:35.972Z,100001.43
2018-03-31T20:26:02.592Z,100001.80
2018-03-31T20:28:29.170Z,100006.03
2018-03-31T20:30:56.516Z,99997.46
2018-03-31T20:33:23.535Z,99996.09
2018-03-31T20:35:50.170Z,99994.61
2018-03-31T20:38:23.408Z,99996.81
2018-03-31T20:40:50.813Z,99992.81
2018-03-31T20:43:17.617Z,99994.93
2018-03-31T20:45:44.448Z,99995.03
2018-03-31T20:48:11.785Z,99992.41
2018-03-31T20:50:38.805Z,99997.62
2018-03-31T20:53:05.538Z,99992.00
2018-03-31T20:55:32.117Z,99998.66
2018-03-31T20:57:58.671Z,99995.92
2018-03-31T21:00:26.140Z,100000.41
2018-03-31T21:02:53.734Z,99994.45
2018-03-31T21:05:20.439Z,99996.31
2018-03-31T21:07:47.094Z,99997.86
2018-03-31T21:10:13.601Z,99999.40
2018-03-31T21:12:40.984Z,99996.98
2018-03-31T21:15:07.601Z,99997.48
2018-03-31T21:17:34.940Z,100002.64
2018-03-31T21:22:35.856Z,100004.08
2018-03-31T21:25:02.550Z,100003.59
2018-03-31T21:27:29.897Z,100008.05
2018-03-31T21:29:57.413Z,100000.23
2018-03-31T21:32:24.015Z,100006.48
2018-03-31T21:34:50.581Z,100009.53
2018-03-31T21:37:17.294Z,99998.48
2018-03-31T21:39:43.901Z,99993.81
2018-03-31T21:42:11.517Z,99997.28
2018-03-31T21:44:38.244Z,100004.08
2018-03-31T21:47:04.825Z,100008.45
2018-03-31T21:49:31.525Z,100003.50
2018-03-31T21:51:58.381Z,100013.39
2018-03-31T21:54:24.944Z,100018.34
2018-03-31T21:56:52.330Z,100011.72
2018-03-31T21:59:19.929Z,100010.88
2018-03-31T22:01:46.807Z,100016.61
2018-03-31T22:04:13.601Z,100018.05
2018-03-31T22:06:40.671Z,100014.91
2018-03-31T22:09:07.388Z,100020.73
2018-03-31T22:11:34.002Z,100014.80
2018-03-31T22:14:05.832Z,100019.20
2018-03-31T22:16:32.537Z,100014.50
2018-03-31T22:18:59.260Z,100014.95
2018-03-31T22:21:26.040Z,100017.36
2018-03-31T22:23:52.892Z,100016.56
2018-03-31T22:26:19.590Z,100015.50
2018-03-31T22:28:46.230Z,100016.47
2018-03-31T22:31:13.080Z,100020.34
2018-03-31T22:33:39.734Z,100015.89
2018-03-31T22:36:06.554Z,100013.59
2018-03-31T22:38:33.128Z,100016.78
2018-03-31T22:40:59.746Z,100013.58
2018-03-31T22:43:26.502Z,100009.54
2018-03-31T22:45:53.432Z,100014.20
2018-03-31T22:48:20.249Z,100010.22
2018-03-31T22:50:46.895Z,100020.37
2018-03-31T22:53:13.492Z,100004.20
2018-03-31T22:55:40.813Z,100012.79
2018-03-31T22:58:07.500Z,100014.16
2018-03-31T23:00:34.867Z,100020.94
2018-03-31T23:03:02.380Z,100029.47
2018-03-31T23:05:29.012Z,100033.25
2018-03-31T23:07:55.673Z,100032.81
2018-03-31T23:10:22.239Z,100030.28
2018-03-31T23:12:48.880Z,100034.11
2018-03-31T23:15:15.469Z,100035.27
2018-03-31T23:17:42.148Z,100036.84
2018-03-31T23:20:09.556Z,100034.80
2018-03-31T23:22:36.303Z,100029.47
2018-03-31T23:25:02.879Z,100032.77
2018-03-31T23:27:30.244Z,100034.49
2018-03-31T23:29:56.895Z,100042.80
2018-03-31T23:32:23.483Z,100039.91
2018-03-31T23:34:50.096Z,100041.96
2018-03-31T23:37:16.660Z,100044.64
2018-03-31T23:39:43.421Z,100045.77
2018-03-31T23:42:10.756Z,100048.30
2018-03-31T23:44:37.384Z,100045.49
2018-03-31T23:47:04.066Z,100042.74
2018-03-31T23:49:31.145Z,100041.91
2018-03-31T23:51:57.718Z,100040.17
2018-03-31T23:54:24.332Z,100047.23
2018-03-31T23:56:50.918Z,100055.30
2018-03-31T23:59:18.271Z,100047.91
